KELD/ELD METAR and TAF weather

Enter ICAO airport designator
Station Type Date Time Source
KELD METAR 2022/12/04 11:53 UTC NOAA

KELD 041153Z AUTO 03004KT 10SM OVC037 06/01 A3032 RMK AO2 SLP269 T00560006 10061 20044 56006


Station Type Date Time Source
KELD Decoded METAR 2022/12/04 11:53 UTC NOAA

SOUTH ARKANSAS REGIONAL, AR, United States (KELD) 33-13N 092-49W 81M
Dec 04, 2022 - 06:53 AM EST / 2022.12.04 1153 UTC
Wind: from the NNE (030 degrees) at 5 MPH (4 KT):0
Visibility: 10 mile(s):0
Sky conditions: overcast
Temperature: 42.1 F (5.6 C)
Dew Point: 33.1 F (0.6 C)
Relative Humidity: 70%
Pressure (altimeter): 30.32 in. Hg (1026 hPa)
Pressure tendency: 0.02 inches (0.6 hPa) lower than three hours ago
ob: KELD 041153Z AUTO 03004KT 10SM OVC037 06/01 A3032 RMK AO2 SLP269 T00560006 10061 20044 56006
cycle: 12

Station Type Date Time Source
KELD TAF 2022/12/04 12:48 UTC NOAA

TAF KELD 041147Z 0412/0512 02004KT P6SM OVC035
FM050300 09003KT P6SM OVC050
FM050600 15003KT P6SM VCSH OVC015

Example: see airport list